createdAt,value
2022-10-13T00:01:28.748Z,9.70
2022-10-13T00:04:14.976Z,9.70
2022-10-13T00:07:01.173Z,9.60
2022-10-13T00:09:47.894Z,9.70
2022-10-13T00:12:36.215Z,9.70
2022-10-13T00:15:25.815Z,9.70
2022-10-13T00:18:13.698Z,9.70
2022-10-13T00:21:00.085Z,9.60
2022-10-13T00:23:47.774Z,9.60
2022-10-13T00:26:34.198Z,9.70
2022-10-13T00:29:20.502Z,9.60
2022-10-13T00:32:06.979Z,9.60
2022-10-13T00:34:54.687Z,9.70
2022-10-13T00:37:41.278Z,9.60
2022-10-13T00:40:27.514Z,9.60
2022-10-13T00:43:22.520Z,9.70
2022-10-13T00:46:08.672Z,9.80
2022-10-13T00:48:56.439Z,9.90
2022-10-13T00:51:48.234Z,9.90
2022-10-13T00:54:35.109Z,10.10
2022-10-13T00:57:21.938Z,10.00
2022-10-13T01:00:09.540Z,10.00
2022-10-13T01:02:56.118Z,10.00
2022-10-13T01:05:43.651Z,10.00
2022-10-13T01:08:31.534Z,10.00
2022-10-13T01:11:33.418Z,9.90
2022-10-13T01:14:28.781Z,9.80
2022-10-13T01:17:23.270Z,9.70
2022-10-13T01:20:46.438Z,9.70
2022-10-13T01:23:59.890Z,9.60
2022-10-13T01:27:27.576Z,9.60
2022-10-13T01:30:17.277Z,9.60
2022-10-13T01:33:20.646Z,9.60
2022-10-13T01:36:17.456Z,9.60
2022-10-13T01:39:15.114Z,9.70
2022-10-13T01:42:11.405Z,9.70
2022-10-13T01:45:01.574Z,9.60
2022-10-13T01:47:50.295Z,9.70
2022-10-13T01:50:39.193Z,9.60
2022-10-13T01:53:27.048Z,9.60
2022-10-13T01:56:13.550Z,9.60
2022-10-13T01:59:03.178Z,9.70
2022-10-13T02:01:59.761Z,9.70
2022-10-13T02:04:56.965Z,9.70
2022-10-13T02:07:47.770Z,9.80
2022-10-13T02:10:40.942Z,9.70
2022-10-13T02:13:30.201Z,9.80
2022-10-13T02:16:17.446Z,9.80
2022-10-13T02:19:05.788Z,9.80
2022-10-13T02:21:54.245Z,9.80
2022-10-13T02:24:40.674Z,9.90
2022-10-13T02:27:27.456Z,9.90
2022-10-13T02:30:22.589Z,9.90
2022-10-13T02:33:09.834Z,9.90
2022-10-13T02:35:56.457Z,9.90
2022-10-13T02:38:44.387Z,9.90
2022-10-13T02:41:30.671Z,9.80
2022-10-13T02:44:16.993Z,9.80
2022-10-13T02:47:03.323Z,9.80
2022-10-13T02:49:49.824Z,9.80
2022-10-13T02:52:36.251Z,9.80
2022-10-13T02:55:24.311Z,9.80
2022-10-13T02:58:10.853Z,9.70
2022-10-13T03:01:06.482Z,9.70
2022-10-13T03:03:52.673Z,9.60
2022-10-13T03:06:39.239Z,9.60
2022-10-13T03:09:25.469Z,9.60
2022-10-13T03:12:13.282Z,9.40
2022-10-13T03:14:59.546Z,9.40
2022-10-13T03:17:46.076Z,9.30
2022-10-13T03:20:32.295Z,9.30
2022-10-13T03:23:18.720Z,9.20
2022-10-13T03:26:05.355Z,9.20
2022-10-13T03:28:53.763Z,9.20
2022-10-13T03:31:40.337Z,9.20
2022-10-13T03:34:26.861Z,9.20
2022-10-13T03:37:13.422Z,9.10
2022-10-13T03:39:59.926Z,9.10
2022-10-13T03:42:46.207Z,9.10
2022-10-13T03:45:34.116Z,9.10
2022-10-13T03:48:20.506Z,9.10
2022-10-13T03:51:08.190Z,9.20
2022-10-13T03:53:54.749Z,9.30
2022-10-13T03:56:42.279Z,9.40
2022-10-13T03:59:34.223Z,9.40
2022-10-13T04:02:24.797Z,9.50
2022-10-13T04:05:11.586Z,9.40
2022-10-13T04:07:58.158Z,9.60
2022-10-13T04:10:44.477Z,9.50
2022-10-13T04:13:31.768Z,9.50
2022-10-13T04:16:21.256Z,9.50
2022-10-13T04:19:09.043Z,9.50
2022-10-13T04:21:55.385Z,9.50
2022-10-13T04:24:42.132Z,9.50
2022-10-13T04:27:28.628Z,9.60
2022-10-13T04:30:15.806Z,9.60
2022-10-13T04:33:03.302Z,9.60
2022-10-13T04:35:51.221Z,9.60
2022-10-13T04:38:37.525Z,9.70
2022-10-13T04:41:25.783Z,9.70
2022-10-13T04:44:12.039Z,9.70
2022-10-13T04:46:58.607Z,9.70
2022-10-13T04:49:44.921Z,9.70
2022-10-13T04:52:32.853Z,9.80
2022-10-13T04:55:19.434Z,9.80
2022-10-13T04:58:05.950Z,9.80
2022-10-13T05:00:52.424Z,9.70
2022-10-13T05:03:38.630Z,9.80
2022-10-13T05:06:27.729Z,9.90
2022-10-13T05:09:17.069Z,9.90
2022-10-13T05:12:03.537Z,10.00
2022-10-13T05:14:50.082Z,10.00
2022-10-13T05:17:36.495Z,10.00
2022-10-13T05:20:22.759Z,9.90
2022-10-13T05:23:09.242Z,9.90
2022-10-13T05:25:56.927Z,9.90
2022-10-13T05:28:43.663Z,9.90
2022-10-13T05:31:34.517Z,10.00
2022-10-13T05:34:20.821Z,10.00
2022-10-13T05:37:07.338Z,10.00
2022-10-13T05:39:53.790Z,10.00
2022-10-13T05:42:41.434Z,10.20
2022-10-13T05:45:30.579Z,10.20
2022-10-13T05:48:17.209Z,10.20
2022-10-13T05:51:07.254Z,10.20
2022-10-13T05:53:59.205Z,10.20
2022-10-13T05:56:49.241Z,10.20
2022-10-13T05:59:41.047Z,10.10
2022-10-13T06:02:34.786Z,10.20
2022-10-13T06:05:23.663Z,10.30
2022-10-13T06:08:10.309Z,10.30
2022-10-13T06:10:57.057Z,10.30
2022-10-13T06:13:43.507Z,10.50
2022-10-13T06:16:31.619Z,10.60
2022-10-13T06:19:18.174Z,10.80
2022-10-13T06:22:04.575Z,10.90
2022-10-13T06:24:50.924Z,11.30
2022-10-13T06:27:37.450Z,11.50
2022-10-13T06:30:24.290Z,11.60
2022-10-13T06:33:12.199Z,11.70
2022-10-13T06:36:02.414Z,11.80
2022-10-13T06:38:48.811Z,11.80
2022-10-13T06:41:35.286Z,11.70
2022-10-13T06:44:21.663Z,11.70
2022-10-13T06:47:07.944Z,11.70
2022-10-13T06:49:55.797Z,11.90
2022-10-13T06:52:43.373Z,12.10
2022-10-13T06:55:29.955Z,12.40
2022-10-13T06:58:16.171Z,12.70
2022-10-13T07:01:02.526Z,13.00
2022-10-13T07:03:50.366Z,13.30
2022-10-13T07:06:38.281Z,13.60
2022-10-13T07:09:24.693Z,13.90
2022-10-13T07:12:11.098Z,14.00
2022-10-13T07:14:57.326Z,14.10
2022-10-13T07:17:44.074Z,14.10
2022-10-13T07:20:30.458Z,14.10
2022-10-13T07:23:18.318Z,14.10
2022-10-13T07:26:08.986Z,14.20
2022-10-13T07:28:55.262Z,14.30
2022-10-13T07:31:43.297Z,14.50
2022-10-13T07:34:29.618Z,14.60
2022-10-13T07:37:15.826Z,14.70
2022-10-13T07:40:03.989Z,14.90
2022-10-13T07:42:50.413Z,15.10
2022-10-13T07:45:36.942Z,15.40
2022-10-13T07:51:15.125Z,15.70
2022-10-13T07:54:01.593Z,15.80
2022-10-13T07:56:52.558Z,15.90
2022-10-13T07:59:39.145Z,16.10
2022-10-13T08:02:26.210Z,16.20
2022-10-13T08:05:12.725Z,16.20
2022-10-13T08:07:59.421Z,16.40
2022-10-13T08:10:45.891Z,16.60
2022-10-13T08:13:33.670Z,16.90
2022-10-13T08:16:20.118Z,17.30
2022-10-13T08:19:06.465Z,17.40
2022-10-13T08:22:00.430Z,17.60
2022-10-13T08:24:47.251Z,17.60
2022-10-13T08:27:50.260Z,17.50
2022-10-13T08:30:39.180Z,17.30
2022-10-13T08:33:26.322Z,17.20
2022-10-13T08:36:12.713Z,17.00
2022-10-13T08:38:59.014Z,17.10
2022-10-13T08:41:46.038Z,17.00
2022-10-13T08:47:49.934Z,17.10
2022-10-13T08:50:40.114Z,17.00
2022-10-13T08:53:30.733Z,16.90
2022-10-13T08:56:20.913Z,16.80
2022-10-13T08:59:07.035Z,16.80
2022-10-13T09:01:55.193Z,16.70
2022-10-13T09:04:49.358Z,16.90
2022-10-13T09:07:38.589Z,17.00
2022-10-13T09:10:25.052Z,17.20
2022-10-13T09:13:11.822Z,17.30
2022-10-13T09:15:59.227Z,17.30
2022-10-13T09:18:45.792Z,17.40
2022-10-13T09:21:33.598Z,17.40
2022-10-13T09:24:21.591Z,17.50
2022-10-13T09:27:14.533Z,17.50
2022-10-13T09:30:26.409Z,17.40
2022-10-13T09:33:20.535Z,17.40
2022-10-13T09:36:11.641Z,17.50
2022-10-13T09:39:14.130Z,17.50
2022-10-13T09:42:23.281Z,17.40
2022-10-13T09:45:16.310Z,17.40
2022-10-13T09:48:07.872Z,17.50
2022-10-13T09:50:56.724Z,17.50
2022-10-13T09:53:49.227Z,17.60
2022-10-13T09:56:43.736Z,17.70
2022-10-13T09:59:34.214Z,17.70
2022-10-13T10:02:29.442Z,17.90
2022-10-13T10:05:24.424Z,18.00
2022-10-13T10:08:20.557Z,17.90
2022-10-13T10:11:14.562Z,18.00
2022-10-13T10:14:11.021Z,17.90
2022-10-13T10:17:05.240Z,18.00
2022-10-13T10:20:06.245Z,17.90
2022-10-13T10:23:00.426Z,17.90
2022-10-13T10:25:50.296Z,18.10
2022-10-13T10:28:48.943Z,18.50
2022-10-13T10:32:00.254Z,18.80
2022-10-13T10:34:51.865Z,18.90
2022-10-13T10:37:52.218Z,19.00
2022-10-13T10:40:55.765Z,19.30
2022-10-13T10:43:54.158Z,19.40
2022-10-13T10:46:46.518Z,19.60
2022-10-13T10:49:34.958Z,19.70
2022-10-13T10:52:27.206Z,19.70
2022-10-13T10:55:21.759Z,19.70
2022-10-13T10:58:22.338Z,19.60
2022-10-13T11:01:21.265Z,19.60
2022-10-13T11:04:36.204Z,19.60
2022-10-13T11:07:56.782Z,19.60
2022-10-13T11:10:43.265Z,19.70
2022-10-13T11:13:29.444Z,19.80
2022-10-13T11:16:29.614Z,19.70
2022-10-13T11:19:36.371Z,19.60
2022-10-13T11:22:25.193Z,19.50
2022-10-13T11:25:39.375Z,19.50
2022-10-13T11:28:48.743Z,19.40
2022-10-13T11:31:51.543Z,19.20
2022-10-13T11:34:39.347Z,19.10
2022-10-13T11:37:32.178Z,19.10
2022-10-13T11:40:25.919Z,19.10
2022-10-13T11:43:36.178Z,19.20
2022-10-13T11:46:28.456Z,19.30
2022-10-13T11:49:51.370Z,19.20
2022-10-13T11:52:53.320Z,19.40
2022-10-13T11:55:47.985Z,19.40
2022-10-13T11:58:35.163Z,19.30
2022-10-13T12:01:21.414Z,19.40
2022-10-13T12:04:15.200Z,19.50
2022-10-13T12:07:03.380Z,19.50
2022-10-13T12:09:53.430Z,19.50
2022-10-13T12:12:47.863Z,19.40
2022-10-13T12:15:37.200Z,19.30
2022-10-13T12:18:25.754Z,19.10
2022-10-13T12:21:16.132Z,18.80
2022-10-13T12:24:10.894Z,18.50
2022-10-13T12:26:59.350Z,18.40
2022-10-13T12:29:45.833Z,18.20
2022-10-13T12:32:35.827Z,18.00
2022-10-13T12:35:24.824Z,18.00
2022-10-13T12:38:19.324Z,18.10
2022-10-13T12:41:06.598Z,18.00
2022-10-13T12:43:54.973Z,17.90
2022-10-13T12:46:43.482Z,17.80
2022-10-13T12:49:32.274Z,17.80
2022-10-13T12:52:25.594Z,17.70
2022-10-13T12:55:17.065Z,17.80
2022-10-13T12:58:03.949Z,17.60
2022-10-13T13:01:07.875Z,17.50
2022-10-13T13:04:00.096Z,17.50
2022-10-13T13:06:57.080Z,17.60
2022-10-13T13:09:43.315Z,17.60
2022-10-13T13:12:31.235Z,17.70
2022-10-13T13:15:36.753Z,17.70
2022-10-13T13:18:36.584Z,17.70
2022-10-13T13:21:22.938Z,17.70
2022-10-13T13:24:16.437Z,17.90
2022-10-13T13:27:20.505Z,18.10
2022-10-13T13:30:12.538Z,18.10
2022-10-13T13:32:58.777Z,18.10
2022-10-13T13:35:48.772Z,18.20
2022-10-13T13:38:35.416Z,18.30
2022-10-13T13:41:21.981Z,18.30
2022-10-13T13:44:08.661Z,18.40
2022-10-13T13:46:54.959Z,18.30
2022-10-13T13:49:41.479Z,18.30
2022-10-13T13:52:29.111Z,18.30
2022-10-13T13:55:17.125Z,18.10
2022-10-13T13:58:03.759Z,18.10
2022-10-13T14:00:50.303Z,18.00
2022-10-13T14:03:36.837Z,18.00
2022-10-13T14:06:23.716Z,18.00
2022-10-13T14:09:11.527Z,17.90
2022-10-13T14:11:58.836Z,17.80
2022-10-13T14:14:45.397Z,17.80
2022-10-13T14:17:31.979Z,17.80
2022-10-13T14:20:18.365Z,17.80
2022-10-13T14:23:04.917Z,17.70
2022-10-13T14:25:52.465Z,17.70
2022-10-13T14:28:41.555Z,17.70
2022-10-13T14:31:27.825Z,17.60
2022-10-13T14:34:14.350Z,17.60
2022-10-13T14:37:00.844Z,17.60
2022-10-13T14:39:47.346Z,17.50
2022-10-13T14:42:34.913Z,17.60
2022-10-13T14:45:21.508Z,17.50
2022-10-13T14:48:07.761Z,17.40
2022-10-13T14:50:54.010Z,17.40
2022-10-13T14:53:42.543Z,17.40
2022-10-13T14:56:30.520Z,17.30
2022-10-13T14:59:18.488Z,17.30
2022-10-13T15:02:05.139Z,17.20
2022-10-13T15:04:52.042Z,17.10
2022-10-13T15:07:41.054Z,17.10
2022-10-13T15:10:27.725Z,17.10
2022-10-13T15:13:14.098Z,17.10
2022-10-13T15:16:02.406Z,17.00
2022-10-13T15:18:49.293Z,17.00
2022-10-13T15:21:35.990Z,16.90
2022-10-13T15:24:22.604Z,16.80
2022-10-13T15:27:09.240Z,16.80
2022-10-13T15:29:55.708Z,16.70
2022-10-13T15:32:43.288Z,16.70
2022-10-13T15:35:31.141Z,16.60
2022-10-13T15:38:17.926Z,16.60
2022-10-13T15:41:05.637Z,16.60
2022-10-13T15:43:52.237Z,16.60
2022-10-13T15:46:49.144Z,16.60
2022-10-13T15:49:47.035Z,16.60
2022-10-13T15:52:37.839Z,16.50
2022-10-13T15:55:24.297Z,16.50
2022-10-13T15:58:13.893Z,16.50
2022-10-13T16:01:02.825Z,16.40
2022-10-13T16:03:49.351Z,16.30
2022-10-13T16:06:37.769Z,16.20
2022-10-13T16:09:24.354Z,16.20
2022-10-13T16:12:10.569Z,16.10
2022-10-13T16:14:57.279Z,16.10
2022-10-13T16:17:46.129Z,16.10
2022-10-13T16:20:35.157Z,16.00
2022-10-13T16:23:22.968Z,16.00
2022-10-13T16:26:10.475Z,15.90
2022-10-13T16:28:57.917Z,15.80
2022-10-13T16:31:45.045Z,15.70
2022-10-13T16:34:31.482Z,15.60
2022-10-13T16:37:18.354Z,15.60
2022-10-13T16:40:07.124Z,15.50
2022-10-13T16:42:53.324Z,15.40
2022-10-13T16:45:58.718Z,15.50
2022-10-13T16:48:47.117Z,15.30
2022-10-13T16:51:33.914Z,15.40
2022-10-13T16:54:20.037Z,15.30
2022-10-13T16:57:07.636Z,15.20
2022-10-13T16:59:54.330Z,15.20
2022-10-13T17:02:40.853Z,15.20
2022-10-13T17:05:27.481Z,15.20
2022-10-13T17:08:14.137Z,15.20
2022-10-13T17:11:00.990Z,15.20
2022-10-13T17:13:49.647Z,15.20
2022-10-13T17:16:36.268Z,15.20
2022-10-13T17:19:22.369Z,15.30
2022-10-13T17:22:08.773Z,15.30
2022-10-13T17:24:55.270Z,15.30
2022-10-13T17:27:42.849Z,15.20
2022-10-13T17:30:30.287Z,15.20
2022-10-13T17:33:16.880Z,15.20
2022-10-13T17:36:05.106Z,15.20
2022-10-13T17:38:52.868Z,15.30
2022-10-13T17:41:39.267Z,15.30
2022-10-13T17:44:25.759Z,15.40
2022-10-13T17:47:13.643Z,15.30
2022-10-13T17:50:00.187Z,15.30
2022-10-13T17:52:46.570Z,15.40
2022-10-13T17:55:32.935Z,15.40
2022-10-13T17:58:19.197Z,15.30
2022-10-13T18:01:13.356Z,15.20
2022-10-13T18:04:04.175Z,15.30
2022-10-13T18:06:50.890Z,15.30
2022-10-13T18:09:37.549Z,15.10
2022-10-13T18:12:23.892Z,15.20
2022-10-13T18:15:10.584Z,15.10
2022-10-13T18:17:56.845Z,15.00
2022-10-13T18:20:44.414Z,15.00
2022-10-13T18:23:32.308Z,15.00
2022-10-13T18:26:20.307Z,14.80
2022-10-13T18:29:08.838Z,14.80
2022-10-13T18:31:56.421Z,14.70
2022-10-13T18:34:42.714Z,14.70
2022-10-13T18:37:30.186Z,14.70
2022-10-13T18:40:16.489Z,14.70
2022-10-13T18:43:03.185Z,14.80
2022-10-13T18:45:49.783Z,14.90
2022-10-13T18:48:36.458Z,14.80
2022-10-13T18:51:23.506Z,14.90
2022-10-13T18:54:11.774Z,15.00
2022-10-13T18:56:58.149Z,14.90
2022-10-13T18:59:44.683Z,14.80
2022-10-13T19:02:31.582Z,14.70
2022-10-13T19:05:18.028Z,14.70
2022-10-13T19:08:04.534Z,14.70
2022-10-13T19:10:52.386Z,14.60
2022-10-13T19:13:38.911Z,14.60
2022-10-13T19:16:26.721Z,14.60
2022-10-13T19:19:13.508Z,14.60
2022-10-13T19:22:00.229Z,14.50
2022-10-13T19:24:46.647Z,14.40
2022-10-13T19:27:34.282Z,14.40
2022-10-13T19:30:21.235Z,14.40
2022-10-13T19:33:09.133Z,14.40
2022-10-13T19:35:55.669Z,14.40
2022-10-13T19:38:42.009Z,14.40
2022-10-13T19:41:29.598Z,14.40
2022-10-13T19:44:19.005Z,14.40
2022-10-13T19:47:05.630Z,14.30
2022-10-13T19:49:52.107Z,14.30
2022-10-13T19:52:38.774Z,14.40
2022-10-13T19:55:25.074Z,14.20
2022-10-13T19:58:12.005Z,14.30
2022-10-13T20:01:05.235Z,14.40
2022-10-13T20:03:52.118Z,14.30
2022-10-13T20:06:39.022Z,14.30
2022-10-13T20:09:25.362Z,14.20
2022-10-13T20:12:11.755Z,14.10
2022-10-13T20:14:58.425Z,14.10
2022-10-13T20:17:45.938Z,14.00
2022-10-13T20:20:32.902Z,14.00
2022-10-13T20:23:19.470Z,13.90
2022-10-13T20:26:08.146Z,13.90
2022-10-13T20:28:55.366Z,13.80
2022-10-13T20:31:42.149Z,13.80
2022-10-13T20:34:30.522Z,13.70
2022-10-13T20:37:16.958Z,13.70
2022-10-13T20:40:03.349Z,13.70
2022-10-13T20:42:51.585Z,13.70
2022-10-13T20:45:37.970Z,13.60
2022-10-13T20:48:24.402Z,13.60
2022-10-13T20:51:13.889Z,13.60
2022-10-13T20:54:00.202Z,13.60
2022-10-13T20:56:47.171Z,13.50
2022-10-13T20:59:33.690Z,13.50
2022-10-13T21:02:21.041Z,13.50
2022-10-13T21:05:08.207Z,13.50
2022-10-13T21:07:55.718Z,13.50
2022-10-13T21:10:42.429Z,13.40
2022-10-13T21:13:28.828Z,13.40
2022-10-13T21:16:17.914Z,13.40
2022-10-13T21:19:04.501Z,13.40
2022-10-13T21:21:51.010Z,13.40
2022-10-13T21:24:38.712Z,13.40
2022-10-13T21:27:25.273Z,13.40
2022-10-13T21:30:12.541Z,13.40
2022-10-13T21:32:59.049Z,13.40
2022-10-13T21:35:45.357Z,13.40
2022-10-13T21:38:32.018Z,13.30
2022-10-13T21:41:19.717Z,13.30
2022-10-13T21:44:06.313Z,13.30
2022-10-13T21:46:52.641Z,13.20
2022-10-13T21:49:39.168Z,13.20
2022-10-13T21:52:26.077Z,13.10
2022-10-13T21:55:14.069Z,13.00
2022-10-13T21:58:05.362Z,13.00
2022-10-13T22:00:51.993Z,13.00
2022-10-13T22:03:38.056Z,13.00
2022-10-13T22:06:24.851Z,13.00
2022-10-13T22:09:11.833Z,13.00
2022-10-13T22:11:58.415Z,13.00
2022-10-13T22:14:46.222Z,13.00
2022-10-13T22:17:32.473Z,13.00
2022-10-13T22:20:18.749Z,13.10
2022-10-13T22:23:05.061Z,13.10
2022-10-13T22:25:54.078Z,13.10
2022-10-13T22:28:40.825Z,13.20
2022-10-13T22:31:30.506Z,13.20
2022-10-13T22:34:17.710Z,13.20
2022-10-13T22:37:04.342Z,13.20
2022-10-13T22:39:50.517Z,13.20
2022-10-13T22:42:37.042Z,13.30
2022-10-13T22:45:23.566Z,13.30
2022-10-13T22:48:12.374Z,13.40
2022-10-13T22:50:58.844Z,13.40
2022-10-13T22:53:45.404Z,13.40
2022-10-13T22:56:33.838Z,13.40
2022-10-13T22:59:20.414Z,13.40
2022-10-13T23:02:07.078Z,13.40
2022-10-13T23:04:54.907Z,13.40
2022-10-13T23:07:41.357Z,13.40
2022-10-13T23:10:28.110Z,13.40
2022-10-13T23:13:14.381Z,13.40
2022-10-13T23:16:03.830Z,13.50
2022-10-13T23:18:50.845Z,13.50
2022-10-13T23:21:39.113Z,13.50
2022-10-13T23:24:25.649Z,13.50
2022-10-13T23:27:11.913Z,13.50
2022-10-13T23:29:58.495Z,13.50
2022-10-13T23:32:44.791Z,13.50
2022-10-13T23:35:31.315Z,13.50
2022-10-13T23:38:18.866Z,13.50
2022-10-13T23:41:07.266Z,13.50
2022-10-13T23:43:54.258Z,13.50
2022-10-13T23:46:40.838Z,13.50
2022-10-13T23:49:27.224Z,13.40
2022-10-13T23:52:13.473Z,13.50
2022-10-13T23:55:01.013Z,13.40
2022-10-13T23:57:47.540Z,13.40
